Time;durP1;ratioP1;P1;durP2;ratioP2;P2;SDS_P1;SDS_P2;PMS_P1;PMS_P2;Temp;Humidity;BMP_temperature;BMP_pressure;BME280_temperature;BME280_humidity;BME280_pressure;Samples;Min_cycle;Max_cycle;Signal;HPM_P1;HPM_P2
2023/12/04 00:02:17;;;;;;;31.40;16.30;;;;;;;;;;6194412;23;20039;-92
2023/12/04 00:04:43;;;;;;;27.95;15.63;;;;;;;;;;6218964;23;20020;-91
2023/12/04 00:07:09;;;;;;;28.23;15.07;;;;;;;;;;6194159;23;20543;-92
2023/12/04 00:09:35;;;;;;;29.38;14.55;;;;;;;;;;6193846;23;20016;-92
2023/12/04 00:12:01;;;;;;;30.25;15.48;;;;;;;;;;6218738;23;20024;-91
2023/12/04 00:14:27;;;;;;;28.10;15.82;;;;;;;;;;6218927;23;20520;-92
2023/12/04 00:16:53;;;;;;;28.80;15.43;;;;;;;;;;6219092;23;20020;-92
2023/12/04 00:19:19;;;;;;;32.22;15.82;;;;;;;;;;6193654;23;20028;-92
2023/12/04 00:21:46;;;;;;;28.95;14.10;;;;;;;;;;6219145;23;20039;-92
2023/12/04 00:24:12;;;;;;;29.67;15.38;;;;;;;;;;6219450;23;20103;-93
2023/12/04 00:26:38;;;;;;;27.95;15.18;;;;;;;;;;6193429;23;20020;-91
2023/12/04 00:29:04;;;;;;;23.98;14.82;;;;;;;;;;6218737;23;20024;-92
2023/12/04 00:31:31;;;;;;;26.05;14.77;;;;;;;;;;6218505;23;20016;-91
2023/12/04 00:33:57;;;;;;;28.25;15.52;;;;;;;;;;6193470;23;20024;-91
2023/12/04 00:36:23;;;;;;;35.53;17.15;;;;;;;;;;6218926;23;20391;-92
2023/12/04 00:38:49;;;;;;;26.88;13.32;;;;;;;;;;6194132;23;20043;-91
2023/12/04 00:41:15;;;;;;;24.55;14.85;;;;;;;;;;6218893;23;20036;-92
2023/12/04 00:43:42;;;;;;;25.45;14.75;;;;;;;;;;6219428;23;20021;-92
2023/12/04 00:46:08;;;;;;;28.63;15.75;;;;;;;;;;6219159;23;20027;-91
2023/12/04 00:48:34;;;;;;;31.92;16.50;;;;;;;;;;6218688;23;20031;-93
2023/12/04 00:51:00;;;;;;;28.15;17.02;;;;;;;;;;6218733;23;20086;-92
2023/12/04 00:53:26;;;;;;;36.67;17.08;;;;;;;;;;6218376;23;20016;-92
2023/12/04 00:55:52;;;;;;;25.48;15.63;;;;;;;;;;6218668;23;20135;-92
2023/12/04 00:58:18;;;;;;;26.27;15.60;;;;;;;;;;6193826;23;20024;-91
2023/12/04 01:00:44;;;;;;;25.20;15.45;;;;;;;;;;6218769;23;20024;-92
2023/12/04 01:03:10;;;;;;;27.63;15.40;;;;;;;;;;6218391;23;20052;-92
2023/12/04 01:05:36;;;;;;;27.17;15.77;;;;;;;;;;6219159;23;20017;-91
2023/12/04 01:08:02;;;;;;;32.10;16.60;;;;;;;;;;6218534;23;20024;-93
2023/12/04 01:10:28;;;;;;;34.92;17.08;;;;;;;;;;6219012;23;20016;-91
2023/12/04 01:12:55;;;;;;;30.35;17.48;;;;;;;;;;6218794;23;20028;-94
2023/12/04 01:15:21;;;;;;;33.47;17.23;;;;;;;;;;6218152;23;20027;-93
2023/12/04 01:17:47;;;;;;;30.10;17.13;;;;;;;;;;6193270;23;20365;-92
2023/12/04 01:20:13;;;;;;;25.55;16.67;;;;;;;;;;6169750;23;20022;-93
2023/12/04 01:22:39;;;;;;;26.73;16.10;;;;;;;;;;6219520;23;20024;-93
2023/12/04 01:25:05;;;;;;;28.50;16.55;;;;;;;;;;6219283;23;20020;-92
2023/12/04 01:27:31;;;;;;;29.42;16.73;;;;;;;;;;6218751;23;20024;-92
2023/12/04 01:29:57;;;;;;;29.30;16.50;;;;;;;;;;6218590;23;20092;-92
2023/12/04 01:32:23;;;;;;;28.00;15.23;;;;;;;;;;6193521;23;20102;-94
2023/12/04 01:34:49;;;;;;;23.15;15.90;;;;;;;;;;6193647;23;20401;-94
2023/12/04 01:37:16;;;;;;;28.85;15.55;;;;;;;;;;6194396;23;20024;-93
2023/12/04 01:39:42;;;;;;;26.83;15.15;;;;;;;;;;6218864;23;20070;-94
2023/12/04 01:42:08;;;;;;;26.40;14.85;;;;;;;;;;6219022;23;20099;-91
2023/12/04 01:44:34;;;;;;;31.13;16.27;;;;;;;;;;6193955;23;20020;-93
2023/12/04 01:47:00;;;;;;;27.52;16.33;;;;;;;;;;6219036;23;20031;-92
2023/12/04 01:49:26;;;;;;;25.85;15.18;;;;;;;;;;6193525;23;20083;-93
2023/12/04 01:51:52;;;;;;;26.77;14.70;;;;;;;;;;6187929;23;20366;-91
2023/12/04 01:54:18;;;;;;;28.30;16.98;;;;;;;;;;6188011;23;20521;-93
2023/12/04 01:56:45;;;;;;;33.17;17.05;;;;;;;;;;6188250;23;20363;-92
2023/12/04 01:59:11;;;;;;;31.38;17.25;;;;;;;;;;6188304;23;20115;-93
2023/12/04 02:01:37;;;;;;;29.08;16.75;;;;;;;;;;6188361;23;20076;-93
2023/12/04 02:04:03;;;;;;;26.70;16.42;;;;;;;;;;6188009;23;20023;-93
2023/12/04 02:06:29;;;;;;;27.48;17.73;;;;;;;;;;6188248;23;20024;-92
2023/12/04 02:08:57;;;;;;;28.23;15.32;;;;;;;;;;6188195;23;20103;-95
2023/12/04 02:11:23;;;;;;;29.58;16.17;;;;;;;;;;6188138;23;20076;-91
2023/12/04 02:13:49;;;;;;;34.00;15.40;;;;;;;;;;6188459;23;20357;-93
2023/12/04 02:16:15;;;;;;;26.77;14.63;;;;;;;;;;6163939;23;20024;-93
2023/12/04 02:18:41;;;;;;;26.70;14.75;;;;;;;;;;6188133;23;20024;-93
2023/12/04 02:21:08;;;;;;;25.10;15.15;;;;;;;;;;6188541;23;20020;-93
2023/12/04 02:23:34;;;;;;;35.20;16.20;;;;;;;;;;6187975;23;20048;-93
2023/12/04 02:26:03;;;;;;;29.15;16.38;;;;;;;;;;6187886;23;20021;-92
2023/12/04 02:28:35;;;;;;;28.63;16.05;;;;;;;;;;6188177;23;20071;-94
2023/12/04 02:31:01;;;;;;;25.63;15.48;;;;;;;;;;6188127;23;20016;-92
2023/12/04 02:33:28;;;;;;;23.35;14.98;;;;;;;;;;6187970;23;20024;-92
2023/12/04 02:35:55;;;;;;;25.25;15.27;;;;;;;;;;6188091;23;20446;-92
2023/12/04 02:38:22;;;;;;;25.70;14.25;;;;;;;;;;6188642;23;20039;-91
2023/12/04 02:40:48;;;;;;;24.45;14.68;;;;;;;;;;6188015;23;20056;-93
2023/12/04 02:43:14;;;;;;;29.83;16.65;;;;;;;;;;6189730;23;20020;-93
2023/12/04 02:45:40;;;;;;;24.60;14.07;;;;;;;;;;6190143;23;20025;-93
2023/12/04 02:48:06;;;;;;;26.58;14.25;;;;;;;;;;6190549;23;20025;-93
2023/12/04 02:50:32;;;;;;;31.45;16.30;;;;;;;;;;6178742;23;20095;-93
2023/12/04 02:52:58;;;;;;;26.00;15.82;;;;;;;;;;6194903;23;20020;-92
2023/12/04 02:55:24;;;;;;;20.52;14.65;;;;;;;;;;6220271;23;20020;-93
2023/12/04 02:57:50;;;;;;;27.58;16.10;;;;;;;;;;6194674;23;20016;-94
2023/12/04 03:00:17;;;;;;;23.50;13.70;;;;;;;;;;6220442;23;20489;-92
2023/12/04 03:02:43;;;;;;;26.17;15.02;;;;;;;;;;6201904;23;20027;-93
2023/12/04 03:05:09;;;;;;;27.42;15.23;;;;;;;;;;6245974;23;20031;-91
2023/12/04 03:07:35;;;;;;;29.52;15.65;;;;;;;;;;6246207;23;20031;-94
2023/12/04 03:10:01;;;;;;;28.40;16.17;;;;;;;;;;6245694;23;20004;-92
2023/12/04 03:12:28;;;;;;;27.70;14.52;;;;;;;;;;6245360;23;20028;-94
2023/12/04 03:15:11;;;;;;;28.88;16.92;;;;;;;;;;6245751;22;20043;-94
2023/12/04 03:18:08;;;;;;;28.67;15.52;;;;;;;;;;6243660;23;20023;-94
2023/12/04 03:20:51;;;;;;;27.05;14.40;;;;;;;;;;6265692;23;20011;-93
2023/12/04 03:23:24;;;;;;;24.80;15.18;;;;;;;;;;6242331;23;20035;-91
2023/12/04 03:25:51;;;;;;;26.05;14.48;;;;;;;;;;6242037;23;20028;-93
2023/12/04 03:28:17;;;;;;;29.05;15.02;;;;;;;;;;6243080;23;20004;-95
2023/12/04 03:30:45;;;;;;;24.83;14.43;;;;;;;;;;6238350;23;20052;-96
2023/12/04 03:33:11;;;;;;;23.73;13.80;;;;;;;;;;6214522;23;20020;-96
2023/12/04 03:35:39;;;;;;;25.15;14.60;;;;;;;;;;6237712;23;20095;-96
2023/12/04 03:38:05;;;;;;;27.33;15.13;;;;;;;;;;6237450;23;20074;-96
2023/12/04 03:40:31;;;;;;;30.88;16.23;;;;;;;;;;6233681;23;20020;-96
2023/12/04 03:42:58;;;;;;;25.33;15.15;;;;;;;;;;6232231;23;20020;-96
2023/12/04 03:45:24;;;;;;;26.08;14.45;;;;;;;;;;6228435;23;20105;-96
2023/12/04 03:47:50;;;;;;;27.02;15.48;;;;;;;;;;6201373;23;20353;-96
2023/12/04 03:50:16;;;;;;;25.50;16.15;;;;;;;;;;6231408;23;20031;-96
2023/12/04 03:52:42;;;;;;;25.42;14.88;;;;;;;;;;6203641;23;20119;-96
2023/12/04 03:55:09;;;;;;;24.95;15.40;;;;;;;;;;6200325;23;20346;-96
2023/12/04 03:57:35;;;;;;;20.42;13.68;;;;;;;;;;6225613;23;20505;-96
2023/12/04 04:00:01;;;;;;;25.23;13.77;;;;;;;;;;6226000;23;20016;-96
2023/12/04 04:02:27;;;;;;;24.50;14.38;;;;;;;;;;6223879;23;20031;-96
2023/12/04 04:04:53;;;;;;;25.63;15.15;;;;;;;;;;6198764;23;20012;-96
2023/12/04 04:07:20;;;;;;;25.55;15.07;;;;;;;;;;6208006;23;20024;-95
2023/12/04 04:09:46;;;;;;;27.33;15.50;;;;;;;;;;6232079;23;20027;-95
2023/12/04 04:12:12;;;;;;;27.63;16.40;;;;;;;;;;6229018;23;20047;-95
2023/12/04 04:14:38;;;;;;;26.77;15.50;;;;;;;;;;6228444;23;20024;-96
2023/12/04 04:17:04;;;;;;;29.13;15.90;;;;;;;;;;6226367;23;20023;-95
2023/12/04 04:19:31;;;;;;;26.73;13.90;;;;;;;;;;6227330;23;20377;-96
2023/12/04 04:21:57;;;;;;;29.00;14.73;;;;;;;;;;6225802;23;20020;-95
2023/12/04 04:24:23;;;;;;;28.40;15.05;;;;;;;;;;6196790;23;20105;-96
2023/12/04 04:26:49;;;;;;;26.40;14.48;;;;;;;;;;6221788;23;20031;-95
2023/12/04 04:29:15;;;;;;;27.05;14.77;;;;;;;;;;6197207;23;20487;-96
2023/12/04 04:31:41;;;;;;;25.27;14.95;;;;;;;;;;6221281;23;20059;-96
2023/12/04 04:34:07;;;;;;;30.30;16.25;;;;;;;;;;6221194;23;20020;-95
2023/12/04 04:36:35;;;;;;;29.40;15.45;;;;;;;;;;6220903;23;20024;-96
2023/12/04 04:39:01;;;;;;;28.63;14.70;;;;;;;;;;6196687;23;20146;-95
2023/12/04 04:41:27;;;;;;;29.27;15.60;;;;;;;;;;6195295;23;20031;-92
2023/12/04 04:43:53;;;;;;;26.90;14.65;;;;;;;;;;6220886;23;20095;-96
2023/12/04 04:46:20;;;;;;;27.38;14.30;;;;;;;;;;6220078;23;20425;-93
2023/12/04 04:48:46;;;;;;;24.35;14.30;;;;;;;;;;6225615;22;20078;-95
2023/12/04 04:51:12;;;;;;;27.70;15.70;;;;;;;;;;6220524;23;20024;-95
2023/12/04 04:53:38;;;;;;;23.40;13.15;;;;;;;;;;6194906;23;20023;-95
2023/12/04 04:56:05;;;;;;;24.48;15.02;;;;;;;;;;6220364;23;20020;-95
2023/12/04 04:58:31;;;;;;;26.33;14.13;;;;;;;;;;6197068;23;20020;-96
2023/12/04 05:00:57;;;;;;;23.67;12.77;;;;;;;;;;6197164;23;20055;-96
2023/12/04 05:03:23;;;;;;;23.67;14.00;;;;;;;;;;6221323;23;20020;-96
2023/12/04 05:05:49;;;;;;;22.77;12.77;;;;;;;;;;6220531;23;20055;-94
2023/12/04 05:08:15;;;;;;;22.40;13.45;;;;;;;;;;6222080;23;20027;-95
2023/12/04 05:10:42;;;;;;;24.38;13.25;;;;;;;;;;6221702;23;20473;-96
2023/12/04 05:13:08;;;;;;;26.67;14.05;;;;;;;;;;6222126;23;20024;-96
2023/12/04 05:15:34;;;;;;;26.20;14.60;;;;;;;;;;6223830;23;20016;-96
2023/12/04 05:18:00;;;;;;;27.38;15.40;;;;;;;;;;6198934;23;20020;-96
2023/12/04 05:20:26;;;;;;;26.63;14.75;;;;;;;;;;6200501;23;20122;-96
2023/12/04 05:22:52;;;;;;;23.05;13.43;;;;;;;;;;6200350;23;20039;-94
2023/12/04 05:25:19;;;;;;;26.23;13.70;;;;;;;;;;6223693;23;20078;-93
2023/12/04 05:27:45;;;;;;;26.73;14.88;;;;;;;;;;6195909;23;20531;-94
2023/12/04 05:30:12;;;;;;;27.48;15.77;;;;;;;;;;6221753;23;20019;-96
2023/12/04 05:32:38;;;;;;;24.02;12.48;;;;;;;;;;6230542;23;20020;-96
2023/12/04 05:35:04;;;;;;;23.23;13.80;;;;;;;;;;6226287;23;20020;-95
2023/12/04 05:37:30;;;;;;;22.48;13.48;;;;;;;;;;6228672;23;20035;-94
2023/12/04 05:39:56;;;;;;;26.55;12.90;;;;;;;;;;6227456;23;20020;-96
2023/12/04 05:42:22;;;;;;;24.40;13.98;;;;;;;;;;6203354;23;20024;-96
2023/12/04 09:23:51;;;;;;;;;;;;;;;;;;;;;
2023/12/04 10:32:01;;;;;;;11.75;7.28;;;;;;;;;;6153984;23;20032;-93
2023/12/04 10:34:49;;;;;;;10.00;6.43;;;;;;;;;;6105047;23;20021;-91
2023/12/04 10:37:47;;;;;;;11.40;6.28;;;;;;;;;;6150254;23;20040;-91
2023/12/04 10:40:31;;;;;;;10.20;6.45;;;;;;;;;;6099511;23;20383;-90
2023/12/04 10:46:35;;;;;;;9.02;6.22;;;;;;;;;;6225975;23;20051;-89
2023/12/04 10:49:14;;;;;;;13.05;6.70;;;;;;;;;;6188185;23;20447;-89
2023/12/04 10:51:45;;;;;;;10.48;7.30;;;;;;;;;;6187571;23;20344;-89
2023/12/04 10:54:29;;;;;;;12.32;7.68;;;;;;;;;;6139134;23;20024;-90
2023/12/04 10:57:08;;;;;;;13.40;8.20;;;;;;;;;;6201617;23;20421;-90
2023/12/04 10:59:59;;;;;;;9.50;7.15;;;;;;;;;;6173035;23;20027;-90
2023/12/04 11:02:48;;;;;;;11.13;6.45;;;;;;;;;;6162560;23;20024;-92
2023/12/04 11:05:29;;;;;;;11.52;6.78;;;;;;;;;;6172321;23;20023;-92
2023/12/04 11:08:43;;;;;;;;;;;;;;;;;;;;;
2023/12/04 11:12:02;;;;;;;12.40;7.72;;;;;;;;;;6213468;23;20032;-91
2023/12/04 11:14:37;;;;;;;11.15;6.93;;;;;;;;;;6128413;23;20017;-91
2023/12/04 11:17:21;;;;;;;;;;;;;;;;;;;;;
2023/12/04 11:20:01;;;;;;;;;;;2.00;99.90;;;;;;6199605;23;20020;-90
2023/12/04 11:22:30;;;;;;;9.88;6.00;;;;;;;;;;6194922;23;19938;-91
2023/12/04 11:25:15;;;;;;;13.05;7.32;;;;;;;;;;6193567;23;20394;-91
2023/12/04 11:28:09;;;;;;;11.70;7.05;;;;;;;;;;6220386;23;20027;-89
2023/12/04 11:30:37;;;;;;;9.43;5.93;;;;;;;;;;6223230;23;20020;-92
2023/12/04 11:33:12;;;;;;;8.65;6.38;;;;;;;;;;6199479;23;20521;-91
2023/12/04 11:35:58;;;;;;;11.52;6.75;;;;;;;;;;6198262;23;20024;-89
2023/12/04 11:38:42;;;;;;;12.70;6.97;;;;;;;;;;6220212;23;20023;-89
2023/12/04 11:41:43;;;;;;;11.65;6.07;;;;;;;;;;6224171;23;20035;-90
2023/12/04 11:44:15;;;;;;;10.45;6.45;;;;;;;;;;6197747;23;20020;-90
2023/12/04 11:47:00;;;;;;;11.95;7.20;;;;;;;;;;6197337;23;20122;-92
2023/12/04 11:49:41;;;;;;;9.30;6.97;;;;;;;;;;6200832;23;20090;-91
2023/12/04 11:52:43;;;;;;;13.05;7.20;;;;;;;;;;6227003;23;20038;-90
2023/12/04 14:08:00;;;;;;;;;;;;;;;;;;;;;
2023/12/04 14:15:25;;;;;;;;;;;;;;;;;;;;;
2023/12/04 14:18:30;;;;;;;12.77;6.90;;;;;;;;;;5959419;23;20076;-93
2023/12/04 14:35:38;;;;;;;;;;;;;;;;;;;;;
2023/12/04 14:39:28;;;;;;;;;;;;;;;;;;;;;
2023/12/04 14:43:17;;;;;;;11.45;7.80;;;;;;;;;;5844779;24;20097;-93
2023/12/04 15:18:26;;;;;;;11.40;7.57;;;;;;;;;;6065742;23;20032;-91
2023/12/04 15:27:36;;;;;;;13.07;8.32;;;;;;;;;;6152012;23;20020;-92
2023/12/04 15:38:02;;;;;;;;;;;;;;;;;;;;;
2023/12/04 15:40:58;;;;;;;12.63;7.22;;;;;;;;;;6218555;23;20110;-92
2023/12/04 15:44:11;;;;;;;11.90;7.05;;;;;;;;;;6214071;23;20019;-91
2023/12/04 15:58:36;;;;;;;12.63;7.32;;;;;;;;;;6238636;23;20031;-93
2023/12/04 16:22:00;;;;;;;13.45;8.00;;;;;;;;;;6274364;22;20024;-93
2023/12/04 16:29:25;;;;;;;;;;;;;;;;;;;;;
2023/12/04 16:36:20;;;;;;;;;;;;;;;;;;;;;
2023/12/04 16:56:17;;;;;;;11.90;8.50;;;;;;;;;;6275495;22;20035;-92
2023/12/04 17:12:56;;;;;;;;;;;;;;;;;;;;;
2023/12/04 17:45:35;;;;;;;;;;;;;;;;;;;;;
2023/12/04 22:03:05;;;;;;;15.15;9.73;;;;;;;;;;6285447;22;20027;-94
2023/12/04 22:05:31;;;;;;;14.10;8.73;;;;;;;;;;6250820;22;20274;-93
2023/12/04 22:08:33;;;;;;;;;;;;;;;;;;;;;
2023/12/04 22:13:53;;;;;;;15.82;9.20;;;;;;;;;;6239385;22;20544;-93
2023/12/04 22:16:19;;;;;;;15.20;8.52;;;;;;;;;;6189443;23;20081;-92
2023/12/04 22:18:54;;;;;;;16.80;9.00;;;;;;;;;;6214651;23;20020;-93
2023/12/04 22:21:21;;;;;;;16.73;9.48;;;;;;;;;;6196668;23;20020;-90
2023/12/04 22:23:48;;;;;;;13.85;8.50;;;;;;;;;;6189892;23;20063;-91
2023/12/04 22:26:14;;;;;;;14.50;9.23;;;;;;;;;;6189192;22;20107;-91
2023/12/04 22:28:41;;;;;;;15.55;8.95;;;;;;;;;;6214188;23;20092;-91
2023/12/04 22:31:10;;;;;;;14.13;8.50;;;;;;;;;;6165804;23;20038;-92
2023/12/04 22:33:36;;;;;;;14.20;8.00;;;;;;;;;;6239380;23;20040;-92
2023/12/04 22:36:05;;;;;;;13.20;8.60;;;;;;;;;;6218079;23;20055;-89
2023/12/04 22:38:31;;;;;;;12.38;7.30;;;;;;;;;;6214932;23;20024;-90
2023/12/04 22:41:00;;;;;;;11.98;7.18;;;;;;;;;;6218557;23;20031;-90
2023/12/04 22:46:15;;;;;;;14.30;8.00;;;;;;;;;;6220111;23;20028;-89
2023/12/04 22:48:42;;;;;;;10.88;7.97;;;;;;;;;;6256271;22;20032;-90
2023/12/04 22:51:37;;;;;;;12.48;8.50;;;;;;;;;;6246873;22;20094;-91
2023/12/04 22:54:09;;;;;;;13.48;8.73;;;;;;;;;;6275827;22;20079;-89
2023/12/04 22:56:35;;;;;;;14.45;8.48;;;;;;;;;;6248048;22;20016;-90
2023/12/04 22:59:10;;;;;;;13.10;7.88;;;;;;;;;;6275470;22;20023;-91
2023/12/04 23:01:38;;;;;;;12.50;7.97;;;;;;;;;;6278063;22;20027;-90
2023/12/04 23:04:04;;;;;;;14.05;7.97;;;;;;;;;;6251271;22;20480;-90
2023/12/04 23:06:31;;;;;;;13.10;9.10;;;;;;;;;;6252595;22;20039;-92
2023/12/04 23:08:57;;;;;;;14.90;9.02;;;;;;;;;;6275860;22;20028;-91
2023/12/04 23:11:23;;;;;;;14.98;8.85;;;;;;;;;;6251189;22;20073;-90
2023/12/04 23:13:50;;;;;;;15.68;9.13;;;;;;;;;;6250277;22;20027;-91
2023/12/04 23:16:19;;;;;;;12.60;8.52;;;;;;;;;;6275731;22;20019;-92
2023/12/04 23:18:45;;;;;;;11.38;8.50;;;;;;;;;;6249757;22;20023;-92
2023/12/04 23:21:11;;;;;;;14.30;9.13;;;;;;;;;;6249384;22;20024;-91
2023/12/04 23:23:37;;;;;;;18.88;9.55;;;;;;;;;;6247345;22;20089;-91
2023/12/04 23:26:11;;;;;;;13.50;9.05;;;;;;;;;;6273213;22;20529;-92
2023/12/04 23:28:39;;;;;;;11.57;8.25;;;;;;;;;;6245505;22;20114;-91
2023/12/04 23:31:10;;;;;;;13.38;8.70;;;;;;;;;;6272952;22;20073;-92
2023/12/04 23:33:37;;;;;;;13.32;8.32;;;;;;;;;;6296696;22;20023;-91
2023/12/04 23:36:09;;;;;;;13.13;9.13;;;;;;;;;;6271467;22;20067;-92
2023/12/04 23:38:36;;;;;;;12.90;8.23;;;;;;;;;;6270983;22;20030;-91
2023/12/04 23:41:03;;;;;;;14.60;8.73;;;;;;;;;;6270839;22;20019;-91
2023/12/04 23:43:29;;;;;;;17.90;9.38;;;;;;;;;;6271360;22;20028;-91
2023/12/04 23:45:55;;;;;;;14.45;8.98;;;;;;;;;;6272457;22;20016;-92
2023/12/04 23:48:21;;;;;;;13.48;9.27;;;;;;;;;;6222395;22;20020;-92
2023/12/04 23:50:48;;;;;;;13.50;9.50;;;;;;;;;;6275737;22;20023;-91
2023/12/04 23:53:14;;;;;;;12.95;8.93;;;;;;;;;;6275120;22;20023;-91
2023/12/04 23:55:42;;;;;;;13.23;8.98;;;;;;;;;;6302177;22;20085;-93
2023/12/04 23:58:08;;;;;;;14.52;8.88;;;;;;;;;;6250203;22;20019;-93
